Naicam, Canada
Current Conditions -  °F | °C
As of 3:02 PM on Saturday 22 Nov 2014 (Local Time) from CYBU Reporting Station
Light Snow Light Snow  
Wind Chill:   Ceiling: 2500
Heat Index: 18°   Visibility: 2.5mi
Dew Point: 16°   Wind: 20mph
Humidity: 93%   Direction: 30°NNE
Pressure: 29.4"   Gusts: 29mph
Location:  52.42°N, 104.5°W
Report Text: CYBU 222102Z AUTO 03017G25KT 2 1/2SM -SN FEW008 OVC025 M08/M09 A2940 RMK SLP982
Loading
Personal Weather Stations






























Interactive Weather Map New forecast layout! Learn more

10-Day Weather Forecast

Advertisements
Track Severe Weather on mobile